»·PEaware :: N3433Q KPSP-KCRQ

N3433Q :: KPSP-KCRQ

FLIGHT INFORMATION

Flight Status: Arrived
Operator: Privately registered:
United States
More flights under this callsign
Pilot: Jeremy H. (10741)
Aircraft: Diamond DA-62
(DA62)
More flights by this aircraft type
Origin: KPSP Palm Springs Intl
United States
Destination: KCRQ McClellan-Palomar
United States
More flights between these airports :: More routes between these airports
Route: CATH1 PSP TRM V208 OCN
File this flight plan on PilotEdge
Remarks: RMK / SIMBRIEF
Altitude:
(Current/Filed)
9,000ft
Speed:
(Current/Filed)
171kts
Departed: 27-Nov-23 03:26 PM
Arrived: 27-Nov-23 04:05 PM
Distance/Time
Traveled:
57nm/0:39
Distance/Time
To Go:
Arrived

Flight Plot

Page will automatically refresh every two minutes.


Map Options




Map Legend


Flown Route
Filed Route
Departure Airport
Arrival Airport
Navaid (VOR, NDB)
Fix

Horizontal Profiles

Position Reports

Time Latitude Longitude Heading Altitude Ground
Speed
27-Nov-23 15:03 33.824044 -116.498128 55 404ft 0kts
27-Nov-23 15:04 33.824044 -116.498128 55 404ft 0kts
27-Nov-23 15:05 33.824044 -116.498128 55 404ft 0kts
27-Nov-23 15:06 33.824044 -116.498128 55 404ft 0kts
27-Nov-23 15:07 33.824044 -116.498128 55 404ft 0kts
27-Nov-23 15:08 33.824044 -116.498128 55 404ft 0kts
27-Nov-23 15:09 33.824044 -116.498128 55 404ft 0kts
27-Nov-23 15:10 33.824044 -116.498128 55 404ft 0kts
27-Nov-23 15:11 33.824044 -116.498128 55 404ft 0kts
27-Nov-23 15:12 33.824044 -116.498128 55 404ft 0kts
27-Nov-23 15:13 33.824044 -116.498128 55 404ft 0kts
27-Nov-23 15:14 33.824044 -116.498128 55 404ft 0kts
27-Nov-23 15:15 33.824044 -116.498128 55 404ft 0kts
27-Nov-23 15:16 33.824044 -116.498128 55 404ft 0kts
27-Nov-23 15:17 33.824044 -116.498128 55 404ft 0kts
27-Nov-23 15:18 33.824044 -116.498128 55 404ft 0kts
27-Nov-23 15:19 33.824044 -116.498128 55 404ft 0kts
27-Nov-23 15:20 33.824044 -116.498128 55 404ft 0kts
27-Nov-23 15:21 33.824045 -116.498127 54 404ft 0kts
27-Nov-23 15:22 33.824616 -116.499597 231 407ft 0kts
27-Nov-23 15:23 33.824616 -116.499597 231 407ft 0kts
27-Nov-23 15:24 33.824486 -116.500205 324 408ft 0kts
27-Nov-23 15:25 33.842366 -116.516726 320 1302ft 109kts
27-Nov-23 15:26 33.865195 -116.540498 320 2777ft 110kts
27-Nov-23 15:27 33.890126 -116.563808 327 4303ft 116kts
27-Nov-23 15:28 33.913794 -116.551546 94 5810ft 104kts
27-Nov-23 15:29 33.901800 -116.520356 79 7303ft 103kts
27-Nov-23 15:30 33.887090 -116.495103 128 8820ft 103kts
27-Nov-23 15:31 33.861554 -116.460640 132 9005ft 161kts
27-Nov-23 15:32 33.829785 -116.419606 132 9008ft 170kts
27-Nov-23 15:33 33.797381 -116.377805 132 9007ft 172kts
27-Nov-23 15:34 33.764599 -116.335562 132 9004ft 172kts
27-Nov-23 15:35 33.731792 -116.293343 132 8988ft 172kts
27-Nov-23 15:36 33.699351 -116.251641 132 8985ft 172kts
27-Nov-23 15:37 33.666292 -116.209194 132 8988ft 172kts
27-Nov-23 15:38 33.630073 -116.172964 167 8985ft 174kts
27-Nov-23 15:39 33.586945 -116.196361 214 8986ft 178kts
27-Nov-23 15:40 33.546847 -116.231542 214 9022ft 178kts
27-Nov-23 15:41 33.506765 -116.266686 214 9021ft 179kts
27-Nov-23 15:42 33.466426 -116.302015 214 9024ft 178kts
27-Nov-23 15:43 33.426048 -116.337332 213 9024ft 179kts
27-Nov-23 15:44 33.385698 -116.372582 213 9020ft 180kts
27-Nov-23 15:45 33.345282 -116.407846 213 9026ft 180kts
27-Nov-23 15:46 33.304487 -116.443401 213 9023ft 181kts
27-Nov-23 15:47 33.263963 -116.478691 213 9021ft 179kts
27-Nov-23 15:48 33.223302 -116.514014 213 9021ft 179kts
27-Nov-23 15:49 33.183058 -116.548969 213 9018ft 179kts
27-Nov-23 15:50 33.144831 -116.586636 240 9011ft 180kts
27-Nov-23 15:51 33.142833 -116.646060 271 8701ft 183kts
27-Nov-23 15:52 33.145145 -116.705564 271 8187ft 176kts
27-Nov-23 15:53 33.147392 -116.764014 272 7682ft 175kts
27-Nov-23 15:54 33.149605 -116.822173 273 7195ft 177kts
27-Nov-23 15:55 33.151716 -116.878382 272 6882ft 175kts
27-Nov-23 15:56 33.154008 -116.940214 272 5375ft 183kts
27-Nov-23 15:57 33.155939 -116.992997 273 4876ft 154kts
27-Nov-23 15:58 33.157830 -117.045209 273 3991ft 155kts
27-Nov-23 15:59 33.157995 -117.095523 259 3074ft 153kts
27-Nov-23 16:00 33.150590 -117.142110 260 2510ft 133kts
27-Nov-23 16:01 33.143814 -117.183972 259 1943ft 122kts
27-Nov-23 16:02 33.137452 -117.223379 259 1256ft 119kts
27-Nov-23 16:03 33.132195 -117.255865 259 670ft 92kts
27-Nov-23 16:04 33.128113 -117.281059 253 331ft 32kts
27-Nov-23 16:05 33.127118 -117.282073 80 334ft 12kts
27-Nov-23 16:06 33.127956 -117.276822 81 327ft 10kts
27-Nov-23 16:07 33.127412 -117.275610 170 329ft 0kts
27-Nov-23 16:08 33.127412 -117.275610 170 330ft 0kts
27-Nov-23 16:09 33.127412 -117.275610 170 330ft 0kts
27-Nov-23 16:10 33.127412 -117.275610 170 330ft 0kts
27-Nov-23 16:11 33.127412 -117.275610 170 330ft 0kts
27-Nov-23 16:12 33.127412 -117.275610 170 330ft 0kts
27-Nov-23 16:13 33.127412 -117.275610 170 330ft 0kts
27-Nov-23 16:14 33.127412 -117.275610 170 330ft 0kts
27-Nov-23 16:15 33.127412 -117.275610 170 330ft 0kts
27-Nov-23 16:16 33.127412 -117.275610 170 330ft 0kts
27-Nov-23 16:17 33.127412 -117.275610 170 330ft 0kts
27-Nov-23 16:18 33.127412 -117.275610 170 330ft 0kts
27-Nov-23 16:19 33.127412 -117.275610 170 330ft 0kts

Navigation Log

Ident Type
Flight plan parsing failed, navigation log unavailable